Terminal Aerodrome Forecast
Issued by NWS North Platte, NE

Home | Current Version | Previous Version | Text Only | Print | Product List | Glossary Off
Versions: 1 2 3 4 5 6 7 8 9 10 11 12 13 14 15

233
FTUS43 KLBF 251120
TAFVTN
TAF
KVTN 251120Z 2512/2612 22009KT P6SM SCT250
     FM251300 25009KT P6SM SCT100 BKN200
     FM251400 29010KT P6SM SCT100 BKN200
     FM251600 32011KT P6SM SCT100 BKN200
     FM252100 35009KT P6SM SCT100 BKN200
     FM260300 35005KT P6SM SCT100 BKN200=

USA.gov is the U.S. government's official web portal to all federal, state and local government web resources and services.